createdAt,value
2023-02-25T00:01:57.686Z,96625.17
2023-02-25T00:04:31.177Z,96620.23
2023-02-25T00:06:59.405Z,96623.85
2023-02-25T00:09:28.813Z,96619.92
2023-02-25T00:11:56.974Z,96607.25
2023-02-25T00:14:25.255Z,96611.35
2023-02-25T00:16:56.149Z,96609.91
2023-02-25T00:19:26.191Z,96605.46
2023-02-25T00:21:54.442Z,96602.34
2023-02-25T00:24:22.557Z,96595.14
2023-02-25T00:26:50.678Z,96596.45
2023-02-25T00:29:18.816Z,96585.49
2023-02-25T00:31:47.240Z,96588.06
2023-02-25T00:34:17.793Z,96583.83
2023-02-25T00:36:46.244Z,96574.00
2023-02-25T00:39:14.461Z,96569.19
2023-02-25T00:41:42.684Z,96563.79
2023-02-25T00:44:11.071Z,96571.59
2023-02-25T00:46:39.558Z,96563.27
2023-02-25T00:49:07.780Z,96559.20
2023-02-25T00:51:38.602Z,96557.09
2023-02-25T00:54:06.697Z,96556.82
2023-02-25T00:56:34.842Z,96562.21
2023-02-25T00:59:02.941Z,96559.63
2023-02-25T01:01:38.187Z,96558.25
2023-02-25T01:17:47.940Z,96510.89
2023-02-25T01:20:20.063Z,96502.28
2023-02-25T01:22:48.218Z,96506.80
2023-02-25T01:25:17.667Z,96498.52
2023-02-25T01:27:45.816Z,96501.85
2023-02-25T01:30:14.182Z,96496.30
2023-02-25T01:32:42.436Z,96490.09
2023-02-25T01:35:10.653Z,96484.86
2023-02-25T01:37:39.009Z,96490.40
2023-02-25T01:40:08.213Z,96481.55
2023-02-25T01:42:36.356Z,96478.33
2023-02-25T01:45:17.544Z,96479.18
2023-02-25T01:48:14.213Z,96480.04
2023-02-25T01:50:49.017Z,96477.66
2023-02-25T01:53:25.070Z,96470.65
2023-02-25T01:55:54.479Z,96469.94
2023-02-25T01:58:22.968Z,96468.11
2023-02-25T02:00:55.516Z,96463.90
2023-02-25T02:03:28.129Z,96459.23
2023-02-25T02:06:21.432Z,96452.42
2023-02-25T02:08:49.989Z,96459.90
2023-02-25T02:11:18.635Z,96452.09
2023-02-25T02:13:52.861Z,96440.89
2023-02-25T02:17:00.637Z,96425.42
2023-02-25T02:20:11.656Z,96427.29
2023-02-25T02:23:14.805Z,96423.08
2023-02-25T02:25:57.088Z,96430.42
2023-02-25T02:28:49.792Z,96427.64
2023-02-25T02:31:48.256Z,96419.60
2023-02-25T02:34:41.144Z,96413.86
2023-02-25T02:37:23.815Z,96406.94
2023-02-25T02:40:09.525Z,96396.55
2023-02-25T02:43:02.398Z,96397.55
2023-02-25T02:46:02.841Z,96402.63
2023-02-25T02:48:53.368Z,96415.98
2023-02-25T02:51:42.912Z,96409.02
2023-02-25T02:54:14.587Z,96415.26
2023-02-25T02:56:47.826Z,96411.73
2023-02-25T02:59:31.836Z,96409.15
2023-02-25T03:02:11.032Z,96407.07
2023-02-25T03:04:42.984Z,96406.05
2023-02-25T03:07:14.570Z,96402.86
2023-02-25T03:09:58.169Z,96386.73
2023-02-25T03:12:30.240Z,96389.27
2023-02-25T03:14:58.499Z,96390.25
2023-02-25T03:17:33.967Z,96390.73
2023-02-25T03:20:29.719Z,96390.70
2023-02-25T03:23:02.696Z,96378.83
2023-02-25T03:25:38.388Z,96388.10
2023-02-25T03:28:18.583Z,96379.88
2023-02-25T03:30:55.416Z,96370.30
2023-02-25T03:33:47.822Z,96375.28
2023-02-25T03:36:37.519Z,96366.52
2023-02-25T03:39:12.068Z,96353.04
2023-02-25T03:41:46.071Z,96343.67
2023-02-25T03:44:24.373Z,96344.29
2023-02-25T03:46:55.317Z,96334.56
2023-02-25T03:49:33.295Z,96319.30
2023-02-25T03:52:09.582Z,96325.64
2023-02-25T03:54:37.881Z,96332.98
2023-02-25T03:57:06.204Z,96329.69
2023-02-25T03:59:34.390Z,96333.64
2023-02-25T04:02:03.474Z,96349.94
2023-02-25T04:04:31.732Z,96346.93
2023-02-25T04:06:59.952Z,96350.91
2023-02-25T04:09:28.113Z,96356.72
2023-02-25T04:11:57.255Z,96353.50
2023-02-25T04:14:25.678Z,96345.77
2023-02-25T04:16:53.844Z,96342.23
2023-02-25T04:19:21.973Z,96338.36
2023-02-25T04:21:50.181Z,96332.67
2023-02-25T04:24:18.337Z,96328.39
2023-02-25T04:26:46.427Z,96318.79
2023-02-25T04:29:14.755Z,96314.28
2023-02-25T04:31:43.076Z,96296.35
2023-02-25T04:34:11.358Z,96288.73
2023-02-25T04:36:41.623Z,96281.69
2023-02-25T04:39:12.366Z,96288.49
2023-02-25T04:41:41.148Z,96281.80
2023-02-25T04:44:09.796Z,96280.27
2023-02-25T04:46:41.641Z,96275.75
2023-02-25T04:49:10.669Z,96273.08
2023-02-25T04:51:39.731Z,96281.31
2023-02-25T04:54:08.664Z,96286.16
2023-02-25T04:56:38.945Z,96289.52
2023-02-25T04:59:07.643Z,96285.91
2023-02-25T05:01:35.788Z,96285.33
2023-02-25T05:04:04.412Z,96268.36
2023-02-25T05:06:33.226Z,96261.80
2023-02-25T05:09:01.448Z,96260.45
2023-02-25T05:11:29.931Z,96253.27
2023-02-25T05:13:58.448Z,96250.64
2023-02-25T05:16:27.261Z,96268.36
2023-02-25T05:18:56.097Z,96270.84
2023-02-25T05:21:26.721Z,96272.65
2023-02-25T05:23:55.486Z,96266.88
2023-02-25T05:26:25.467Z,96248.15
2023-02-25T05:28:57.016Z,96257.13
2023-02-25T05:31:26.180Z,96246.37
2023-02-25T05:33:54.460Z,96249.23
2023-02-25T05:36:25.809Z,96245.67
2023-02-25T05:39:03.171Z,96243.41
2023-02-25T05:41:31.679Z,96239.95
2023-02-25T05:43:59.834Z,96240.47
2023-02-25T05:46:28.255Z,96248.52
2023-02-25T05:48:56.925Z,96231.40
2023-02-25T05:51:25.138Z,96225.70
2023-02-25T05:53:53.312Z,96224.56
2023-02-25T05:56:30.850Z,96217.23
2023-02-25T05:59:00.174Z,96216.01
2023-02-25T06:01:29.539Z,96214.85
2023-02-25T06:03:58.803Z,96211.39
2023-02-25T06:06:30.562Z,96213.58
2023-02-25T06:08:59.234Z,96207.88
2023-02-25T06:11:30.643Z,96206.93
2023-02-25T06:13:59.848Z,96220.22
2023-02-25T06:16:32.836Z,96218.95
2023-02-25T06:19:01.780Z,96214.23
2023-02-25T06:21:30.830Z,96209.05
2023-02-25T06:23:59.090Z,96212.68
2023-02-25T06:26:27.414Z,96217.13
2023-02-25T06:28:56.699Z,96222.20
2023-02-25T06:31:25.542Z,96227.20
2023-02-25T06:33:55.135Z,96227.40
2023-02-25T06:36:24.097Z,96220.88
2023-02-25T06:38:52.635Z,96224.66
2023-02-25T06:41:22.571Z,96221.77
2023-02-25T06:43:52.655Z,96218.68
2023-02-25T06:46:25.780Z,96215.00
2023-02-25T06:48:55.734Z,96218.13
2023-02-25T06:51:23.970Z,96219.67
2023-02-25T06:53:53.207Z,96200.11
2023-02-25T06:56:22.286Z,96192.52
2023-02-25T06:58:52.791Z,96188.02
2023-02-25T07:01:21.253Z,96193.64
2023-02-25T07:03:49.751Z,96209.19
2023-02-25T07:06:18.751Z,96216.63
2023-02-25T07:08:47.033Z,96216.52
2023-02-25T07:11:18.194Z,96212.34
2023-02-25T07:13:47.909Z,96208.69
2023-02-25T07:16:20.493Z,96195.98
2023-02-25T07:18:48.832Z,96187.13
2023-02-25T07:21:18.041Z,96182.50
2023-02-25T07:23:46.605Z,96189.03
2023-02-25T07:26:16.118Z,96182.05
2023-02-25T07:28:44.295Z,96173.13
2023-02-25T07:31:19.356Z,96159.92
2023-02-25T07:33:48.164Z,96151.41
2023-02-25T07:36:17.059Z,96136.63
2023-02-25T07:38:46.884Z,96136.46
2023-02-25T07:41:20.598Z,96133.88
2023-02-25T07:43:49.234Z,96116.90
2023-02-25T07:46:17.429Z,96099.25
2023-02-25T07:48:45.663Z,96095.65
2023-02-25T07:51:18.617Z,96092.86
2023-02-25T07:53:48.685Z,96096.11
2023-02-25T07:56:19.550Z,96086.12
2023-02-25T07:58:47.895Z,96086.93
2023-02-25T08:01:28.995Z,96091.39
2023-02-25T08:04:04.491Z,96086.04
2023-02-25T08:06:37.758Z,96086.98
2023-02-25T08:09:12.353Z,96089.33
2023-02-25T08:11:41.247Z,96091.14
2023-02-25T08:14:09.484Z,96096.61
2023-02-25T08:16:37.876Z,96097.75
2023-02-25T08:19:06.826Z,96098.15
2023-02-25T08:21:35.016Z,96091.83
2023-02-25T08:24:03.224Z,96076.35
2023-02-25T08:26:31.651Z,96086.71
2023-02-25T08:29:00.543Z,96095.99
2023-02-25T08:31:29.216Z,96092.06
2023-02-25T08:33:59.542Z,96082.63
2023-02-25T08:36:31.310Z,96074.13
2023-02-25T08:39:00.147Z,96076.54
2023-02-25T08:41:29.916Z,96083.47
2023-02-25T08:44:00.391Z,96063.09
2023-02-25T08:46:32.911Z,96063.59
2023-02-25T08:49:01.730Z,96062.14
2023-02-25T08:51:34.768Z,96042.95
2023-02-25T08:54:08.226Z,96042.15
2023-02-25T08:56:37.661Z,96044.90
2023-02-25T08:59:06.253Z,96049.70
2023-02-25T09:01:46.601Z,96044.42
2023-02-25T09:04:24.098Z,96032.90
2023-02-25T09:06:54.178Z,96020.41
2023-02-25T09:09:22.371Z,96027.74
2023-02-25T09:11:50.814Z,96019.38
2023-02-25T09:14:20.327Z,96026.67
2023-02-25T09:16:49.317Z,96024.27
2023-02-25T09:19:18.651Z,96017.01
2023-02-25T09:21:50.514Z,96002.86
2023-02-25T09:24:19.011Z,96002.36
2023-02-25T09:26:47.830Z,96000.63
2023-02-25T09:29:16.828Z,95992.42
2023-02-25T09:31:45.105Z,95997.89
2023-02-25T09:34:13.968Z,96000.64
2023-02-25T09:36:42.376Z,96003.78
2023-02-25T09:39:10.690Z,95996.77
2023-02-25T09:41:52.506Z,95997.44
2023-02-25T09:44:32.487Z,95996.77
2023-02-25T09:47:25.381Z,95994.21
2023-02-25T09:50:02.647Z,95985.25
2023-02-25T09:52:42.144Z,95978.03
2023-02-25T09:55:47.974Z,95978.42
2023-02-25T09:58:43.806Z,95975.77
2023-02-25T10:01:11.836Z,95968.35
2023-02-25T10:03:54.467Z,95961.11
2023-02-25T10:06:44.286Z,95968.73
2023-02-25T10:09:40.303Z,95961.14
2023-02-25T10:12:24.650Z,95950.80
2023-02-25T10:15:26.536Z,95941.80
2023-02-25T10:18:26.420Z,95935.16
2023-02-25T10:21:19.571Z,95931.33
2023-02-25T10:23:47.635Z,95929.61
2023-02-25T10:26:29.904Z,95934.14
2023-02-25T10:29:07.791Z,95939.04
2023-02-25T10:31:36.151Z,95947.05
2023-02-25T10:34:26.416Z,95959.29
2023-02-25T10:36:58.647Z,95954.89
2023-02-25T10:39:28.527Z,95951.80
2023-02-25T10:41:57.120Z,95951.86
2023-02-25T10:44:25.292Z,95950.79
2023-02-25T10:47:03.969Z,95955.26
2023-02-25T10:49:38.417Z,95967.48
2023-02-25T10:52:20.104Z,95969.52
2023-02-25T10:54:53.280Z,95975.69
2023-02-25T10:57:40.102Z,95983.84
2023-02-25T11:00:34.807Z,95988.89
2023-02-25T11:03:04.969Z,95991.81
2023-02-25T11:05:40.278Z,95998.17
2023-02-25T11:08:32.794Z,96001.14
2023-02-25T11:11:19.748Z,96001.50
2023-02-25T11:14:06.879Z,96001.88
2023-02-25T11:16:39.161Z,96011.59
2023-02-25T11:19:32.716Z,96010.10
2023-02-25T11:22:09.003Z,96011.34
2023-02-25T11:24:39.686Z,96011.39
2023-02-25T11:27:28.539Z,96024.61
2023-02-25T11:30:07.078Z,96020.52
2023-02-25T11:32:40.608Z,96014.13
2023-02-25T11:35:18.754Z,96019.86
2023-02-25T11:37:50.621Z,96033.84
2023-02-25T11:40:32.481Z,96040.09
2023-02-25T11:43:06.438Z,96048.76
2023-02-25T11:45:55.422Z,96053.23
2023-02-25T11:48:40.771Z,96054.99
2023-02-25T11:51:15.111Z,96056.59
2023-02-25T11:54:25.139Z,96066.94
2023-02-25T11:57:05.317Z,96076.98
2023-02-25T11:59:50.407Z,96083.72
2023-02-25T12:02:52.089Z,96105.92
2023-02-25T12:05:47.717Z,96106.46
2023-02-25T12:08:50.149Z,96114.17
2023-02-25T12:11:46.433Z,96119.59
2023-02-25T12:14:34.555Z,96134.70
2023-02-25T12:17:34.511Z,96140.14
2023-02-25T12:20:41.024Z,96144.20
2023-02-25T12:24:04.826Z,96167.38
2023-02-25T12:26:58.560Z,96174.20
2023-02-25T12:29:44.917Z,96185.11
2023-02-25T12:33:13.079Z,96192.59
2023-02-25T12:35:49.721Z,96210.80
2023-02-25T12:38:23.833Z,96217.99
2023-02-25T12:41:35.612Z,96226.91
2023-02-25T12:44:30.453Z,96226.20
2023-02-25T12:47:32.045Z,96238.10
2023-02-25T12:50:31.280Z,96239.41
2023-02-25T12:53:08.883Z,96244.50
2023-02-25T12:56:30.304Z,96241.21
2023-02-25T12:59:23.454Z,96233.59
2023-02-25T13:02:06.019Z,96223.80
2023-02-25T13:05:02.533Z,96230.83
2023-02-25T13:07:57.488Z,96238.39
2023-02-25T13:10:51.308Z,96250.33
2023-02-25T13:13:47.690Z,96247.42
2023-02-25T13:16:31.803Z,96260.16
2023-02-25T13:19:37.194Z,96258.78
2023-02-25T13:22:37.179Z,96259.72
2023-02-25T13:25:38.943Z,96272.88
2023-02-25T13:28:17.558Z,96279.68
2023-02-25T13:30:59.591Z,96274.21
2023-02-25T13:34:00.471Z,96269.56
2023-02-25T13:36:37.329Z,96273.81
2023-02-25T13:39:49.160Z,96282.98
2023-02-25T13:42:41.520Z,96288.96
2023-02-25T13:46:02.349Z,96278.09
2023-02-25T13:48:53.236Z,96279.92
2023-02-25T13:52:07.431Z,96278.75
2023-02-25T13:55:24.101Z,96286.65
2023-02-25T13:58:06.751Z,96282.60
2023-02-25T14:01:38.637Z,96279.49
2023-02-25T14:04:53.325Z,96281.18
2023-02-25T14:07:46.844Z,96269.16
2023-02-25T14:10:29.970Z,96273.17
2023-02-25T14:13:45.993Z,96261.80
2023-02-25T14:16:41.969Z,96263.23
2023-02-25T14:19:10.075Z,96250.73
2023-02-25T14:22:04.672Z,96252.93
2023-02-25T14:25:14.721Z,96258.45
2023-02-25T14:28:21.787Z,96257.77
2023-02-25T14:31:20.080Z,96251.31
2023-02-25T14:34:25.383Z,96260.98
2023-02-25T14:37:11.399Z,96255.30
2023-02-25T14:40:12.844Z,96237.25
2023-02-25T14:42:56.684Z,96251.02
2023-02-25T14:46:10.879Z,96237.05
2023-02-25T14:48:59.635Z,96231.61
2023-02-25T14:52:00.001Z,96228.52
2023-02-25T14:55:06.193Z,96220.03
2023-02-25T14:57:44.022Z,96229.92
2023-02-25T15:00:45.980Z,96229.09
2023-02-25T15:04:01.905Z,96234.39
2023-02-25T15:07:45.762Z,96230.76
2023-02-25T15:10:25.939Z,96226.48
2023-02-25T15:13:55.603Z,96218.58
2023-02-25T15:16:38.851Z,96220.60
2023-02-25T15:19:56.482Z,96210.26
2023-02-25T15:22:27.790Z,96219.85
2023-02-25T15:25:55.618Z,96225.55
2023-02-25T15:28:29.621Z,96223.73
2023-02-25T15:31:00.612Z,96233.15
2023-02-25T15:33:40.429Z,96240.30
2023-02-25T15:36:14.674Z,96251.70
2023-02-25T15:38:46.894Z,96251.85
2023-02-25T15:41:27.165Z,96274.13
2023-02-25T15:44:09.165Z,96278.02
2023-02-25T15:46:38.902Z,96280.16
2023-02-25T15:49:31.442Z,96291.80
2023-02-25T15:52:04.757Z,96294.38
2023-02-25T15:54:32.973Z,96301.76
2023-02-25T15:57:09.118Z,96321.76
2023-02-25T15:59:52.989Z,96342.38
2023-02-25T16:02:27.452Z,96351.90
2023-02-25T16:05:23.781Z,96351.65
2023-02-25T16:08:12.277Z,96351.63
2023-02-25T16:10:46.497Z,96352.23
2023-02-25T16:13:30.013Z,96356.93
2023-02-25T16:15:59.383Z,96359.20
2023-02-25T16:18:47.643Z,96366.42
2023-02-25T16:21:26.572Z,96377.88
2023-02-25T16:23:55.264Z,96382.11
2023-02-25T16:26:52.748Z,96383.86
2023-02-25T16:30:13.650Z,96396.14
2023-02-25T16:33:24.391Z,96400.65
2023-02-25T16:36:34.376Z,96408.92
2023-02-25T16:39:09.993Z,96411.02
2023-02-25T16:41:39.445Z,96393.67
2023-02-25T16:44:08.690Z,96400.02
2023-02-25T16:46:39.644Z,96405.02
2023-02-25T16:49:21.421Z,96398.13
2023-02-25T16:51:53.255Z,96397.56
2023-02-25T16:54:32.872Z,96395.21
2023-02-25T16:57:06.529Z,96405.79
2023-02-25T16:59:38.435Z,96410.30
2023-02-25T17:02:15.695Z,96401.59
2023-02-25T17:04:56.178Z,96392.65
2023-02-25T17:07:30.277Z,96413.94
2023-02-25T17:10:02.911Z,96427.48
2023-02-25T17:12:45.527Z,96434.86
2023-02-25T17:15:35.344Z,96425.08
2023-02-25T17:18:17.039Z,96413.91
2023-02-25T17:20:45.767Z,96407.29
2023-02-25T17:23:16.078Z,96407.56
2023-02-25T17:25:49.290Z,96415.55
2023-02-25T17:28:22.931Z,96423.79
2023-02-25T17:30:52.205Z,96438.33
2023-02-25T17:33:29.229Z,96450.02
2023-02-25T17:36:14.116Z,96458.16
2023-02-25T17:38:46.540Z,96458.07
2023-02-25T17:41:19.833Z,96462.05
2023-02-25T17:43:48.263Z,96454.34
2023-02-25T17:46:36.368Z,96447.07
2023-02-25T17:49:30.054Z,96448.40
2023-02-25T17:52:07.020Z,96453.45
2023-02-25T17:54:38.331Z,96450.05
2023-02-25T17:57:20.018Z,96458.39
2023-02-25T17:59:51.605Z,96464.88
2023-02-25T18:02:22.914Z,96464.07
2023-02-25T18:05:07.885Z,96458.41
2023-02-25T18:07:38.025Z,96455.39
2023-02-25T18:10:26.474Z,96456.30
2023-02-25T18:12:55.518Z,96461.59
2023-02-25T18:15:34.125Z,96457.17
2023-02-25T18:18:07.415Z,96462.89
2023-02-25T18:20:40.917Z,96466.36
2023-02-25T18:23:15.378Z,96468.67
2023-02-25T18:26:10.287Z,96478.11
2023-02-25T18:28:39.083Z,96479.86
2023-02-25T18:31:08.337Z,96481.17
2023-02-25T18:33:36.606Z,96489.36
2023-02-25T18:36:07.953Z,96498.46
2023-02-25T18:38:37.722Z,96500.17
2023-02-25T18:41:06.475Z,96499.31
2023-02-25T18:43:39.961Z,96497.01
2023-02-25T18:46:09.666Z,96503.39
2023-02-25T18:48:37.905Z,96496.02
2023-02-25T18:51:13.841Z,96496.98
2023-02-25T18:53:42.139Z,96500.98
2023-02-25T18:56:16.921Z,96501.46
2023-02-25T18:58:45.613Z,96518.93
2023-02-25T19:01:23.981Z,96522.58
2023-02-25T19:03:54.163Z,96509.42
2023-02-25T19:06:22.536Z,96517.64
2023-02-25T19:08:50.822Z,96511.86
2023-02-25T19:11:27.347Z,96517.41
2023-02-25T19:13:55.612Z,96524.13
2023-02-25T19:16:24.158Z,96525.13
2023-02-25T19:18:52.625Z,96521.95
2023-02-25T19:21:22.111Z,96526.67
2023-02-25T19:23:54.019Z,96534.09
2023-02-25T19:26:22.977Z,96547.14
2023-02-25T19:28:51.336Z,96547.61
2023-02-25T19:31:19.642Z,96540.70
2023-02-25T19:33:47.799Z,96537.19
2023-02-25T19:36:16.433Z,96543.02
2023-02-25T19:38:44.670Z,96538.34
2023-02-25T19:41:14.324Z,96535.64
2023-02-25T19:43:42.729Z,96527.31
2023-02-25T19:46:11.254Z,96516.36
2023-02-25T19:48:39.575Z,96505.97
2023-02-25T19:51:10.233Z,96492.06
2023-02-25T19:53:38.431Z,96491.81
2023-02-25T19:56:08.044Z,96506.98
2023-02-25T19:58:36.282Z,96522.30
2023-02-25T20:01:08.367Z,96523.19
2023-02-25T20:03:36.644Z,96526.05
2023-02-25T20:06:22.175Z,96530.09
2023-02-25T20:08:52.688Z,96520.92
2023-02-25T20:11:20.916Z,96512.16
2023-02-25T20:13:49.221Z,96500.23
2023-02-25T20:16:17.517Z,96498.69
2023-02-25T20:18:49.418Z,96509.77
2023-02-25T20:21:17.879Z,96509.00
2023-02-25T20:23:46.792Z,96513.13
2023-02-25T20:26:17.530Z,96507.83
2023-02-25T20:28:47.004Z,96501.77
2023-02-25T20:31:17.843Z,96509.27
2023-02-25T20:33:49.941Z,96528.60
2023-02-25T20:36:22.866Z,96531.13
2023-02-25T20:39:26.654Z,96525.64
2023-02-25T20:41:54.972Z,96524.50
2023-02-25T20:44:23.174Z,96521.11
2023-02-25T20:46:51.748Z,96512.85
2023-02-25T20:49:20.344Z,96515.27
2023-02-25T20:51:49.187Z,96514.89
2023-02-25T20:54:19.303Z,96523.02
2023-02-25T20:56:49.283Z,96524.39
2023-02-25T20:59:19.009Z,96530.73
2023-02-25T21:01:47.238Z,96539.48
2023-02-25T21:04:15.465Z,96551.23
2023-02-25T21:06:43.591Z,96560.44
2023-02-25T21:09:11.907Z,96574.70
2023-02-25T21:11:40.114Z,96578.28
2023-02-25T21:14:10.391Z,96585.94
2023-02-25T21:16:39.210Z,96586.85
2023-02-25T21:19:08.386Z,96592.02
2023-02-25T21:21:37.297Z,96599.89
2023-02-25T21:24:15.097Z,96596.79
2023-02-25T21:26:44.296Z,96597.09
2023-02-25T21:29:13.704Z,96597.78
2023-02-25T21:31:42.012Z,96600.20
2023-02-25T21:34:13.006Z,96602.23
2023-02-25T21:36:42.067Z,96609.40
2023-02-25T21:39:12.533Z,96605.19
2023-02-25T21:41:44.404Z,96603.42
2023-02-25T21:44:13.565Z,96594.85
2023-02-25T21:46:41.694Z,96597.80
2023-02-25T21:49:10.765Z,96603.48
2023-02-25T21:51:40.252Z,96605.45
2023-02-25T21:54:09.691Z,96608.48
2023-02-25T21:56:38.084Z,96613.42
2023-02-25T21:59:06.211Z,96614.66
2023-02-25T22:01:38.764Z,96627.06
2023-02-25T22:04:07.805Z,96632.85
2023-02-25T22:06:35.994Z,96628.33
2023-02-25T22:09:04.585Z,96630.20
2023-02-25T22:11:36.411Z,96629.69
2023-02-25T22:14:07.782Z,96627.27
2023-02-25T22:16:37.461Z,96629.64
2023-02-25T22:19:06.391Z,96634.57
2023-02-25T22:21:35.847Z,96641.20
2023-02-25T22:24:05.613Z,96640.00
2023-02-25T22:26:36.250Z,96638.42
2023-02-25T22:29:09.124Z,96635.58
2023-02-25T22:31:38.031Z,96637.55
2023-02-25T22:34:07.065Z,96640.50
2023-02-25T22:36:35.306Z,96640.58
2023-02-25T22:39:07.191Z,96642.00
2023-02-25T22:41:36.930Z,96640.34
2023-02-25T22:44:05.650Z,96638.98
2023-02-25T22:46:37.171Z,96637.40
2023-02-25T22:49:08.432Z,96643.09
2023-02-25T22:51:44.711Z,96648.88
2023-02-25T22:54:16.451Z,96646.61
2023-02-25T22:56:46.403Z,96645.37
2023-02-25T22:59:14.555Z,96638.77
2023-02-25T23:01:42.653Z,96644.95
2023-02-25T23:04:10.871Z,96639.23
2023-02-25T23:06:44.283Z,96637.37
2023-02-25T23:09:14.686Z,96631.80
2023-02-25T23:11:44.919Z,96624.45
2023-02-25T23:14:14.438Z,96622.06
2023-02-25T23:16:45.116Z,96619.71
2023-02-25T23:19:16.856Z,96619.56
2023-02-25T23:21:45.732Z,96616.65
2023-02-25T23:24:16.544Z,96613.68
2023-02-25T23:26:47.742Z,96617.21
2023-02-25T23:29:15.910Z,96616.41
2023-02-25T23:31:47.459Z,96620.22
2023-02-25T23:34:23.700Z,96620.82
2023-02-25T23:36:56.612Z,96625.80
2023-02-25T23:39:25.261Z,96623.36
2023-02-25T23:41:53.394Z,96624.13
2023-02-25T23:44:21.691Z,96630.69
2023-02-25T23:46:49.810Z,96630.06
2023-02-25T23:49:18.118Z,96635.16
2023-02-25T23:51:48.655Z,96641.61
2023-02-25T23:54:20.605Z,96638.85
2023-02-25T23:56:50.326Z,96638.13
2023-02-25T23:59:18.930Z,96641.01
